Time,TemperatureF,DewpointF,PressureIn,WindDirection,WindDirectionDegrees,WindSpeedMPH,WindSpeedGustMPH,Humidity,HourlyPrecipIn,Conditions,Clouds,dailyrainin,SoftwareType,DateUTC
2013-06-24 00:00:00,76.0,76.0,30.13,South,190,7.0,7.0,100,-99.99,,,-99.99,,2013-06-24 04:00:00,
2013-06-24 00:22:00,76.0,76.0,30.13,South,190,7.0,7.0,100,-99.99,,,-99.99,,2013-06-24 04:22:00,
2013-06-24 00:33:00,76.0,76.0,30.13,South,190,7.0,7.0,100,-99.99,,,-99.99,,2013-06-24 04:33:00,
2013-06-24 00:43:00,76.0,76.0,30.13,South,190,7.0,7.0,100,-99.99,,,-99.99,,2013-06-24 04:43:00,
2013-06-24 00:52:00,76.0,76.0,30.13,South,190,7.0,7.0,100,-99.99,,,-99.99,,2013-06-24 04:52:00,
2013-06-24 01:22:00,76.0,76.0,30.13,South,190,9.0,10.0,100,-99.99,,,-99.99,,2013-06-24 05:22:00,
2013-06-24 01:32:00,76.0,76.0,30.13,South,190,9.0,10.0,100,-99.99,,,-99.99,,2013-06-24 05:32:00,
2013-06-24 02:00:00,76.0,76.0,30.12,SSW,210,9.0,10.0,100,-99.99,,,-99.99,,2013-06-24 06:00:00,
2013-06-24 02:21:00,76.0,76.0,30.12,SSW,210,9.0,10.0,100,-99.99,,,-99.99,,2013-06-24 06:21:00,
2013-06-24 02:33:00,76.0,76.0,30.12,SSW,210,9.0,10.0,100,-99.99,,,-99.99,,2013-06-24 06:33:00,
2013-06-24 02:42:00,76.0,76.0,30.12,SSW,210,9.0,10.0,100,-99.99,,,-99.99,,2013-06-24 06:42:00,
2013-06-24 02:52:00,76.0,76.0,30.12,SSW,210,9.0,10.0,100,-99.99,,,-99.99,,2013-06-24 06:52:00,
2013-06-24 03:00:00,76.0,76.0,30.11,SSW,210,10.0,12.0,100,-99.99,,,-99.99,,2013-06-24 07:00:00,
2013-06-24 03:33:00,76.0,76.0,30.11,SSW,210,10.0,12.0,100,-99.99,,,-99.99,,2013-06-24 07:33:00,
2013-06-24 03:43:00,76.0,76.0,30.11,SSW,210,10.0,12.0,100,-99.99,,,-99.99,,2013-06-24 07:43:00,
2013-06-24 03:52:00,76.0,76.0,30.11,SSW,210,10.0,12.0,100,-99.99,,,-99.99,,2013-06-24 07:52:00,
2013-06-24 04:00:00,75.0,75.0,30.12,SW,220,12.0,13.0,100,-99.99,,,-99.99,,2013-06-24 08:00:00,
2013-06-24 04:33:00,75.0,75.0,30.12,SW,220,12.0,13.0,100,-99.99,,,-99.99,,2013-06-24 08:33:00,
2013-06-24 04:52:00,75.0,75.0,30.12,SW,220,12.0,13.0,100,-99.99,,,-99.99,,2013-06-24 08:52:00,
2013-06-24 05:33:00,75.0,75.0,30.12,SW,220,7.0,7.0,100,-99.99,,,-99.99,,2013-06-24 09:33:00,
2013-06-24 05:43:00,75.0,75.0,30.12,SW,220,7.0,7.0,100,-99.99,,,-99.99,,2013-06-24 09:43:00,
2013-06-24 05:53:00,75.0,75.0,30.12,SW,220,7.0,7.0,100,-99.99,,,-99.99,,2013-06-24 09:53:00,
2013-06-24 06:00:00,74.0,74.0,30.12,SSW,200,9.0,9.0,100,-99.99,,,-99.99,,2013-06-24 10:00:00,
2013-06-24 06:22:00,74.0,74.0,30.12,SSW,200,9.0,9.0,100,-99.99,,,-99.99,,2013-06-24 10:22:00,
2013-06-24 06:33:00,74.0,74.0,30.12,SSW,200,9.0,9.0,100,-99.99,,,-99.99,,2013-06-24 10:33:00,
2013-06-24 06:43:00,74.0,74.0,30.12,SSW,200,9.0,9.0,100,-99.99,,,-99.99,,2013-06-24 10:43:00,
2013-06-24 06:53:00,74.0,74.0,30.12,SSW,200,9.0,9.0,100,-99.99,,,-99.99,,2013-06-24 10:53:00,
2013-06-24 07:00:00,74.0,74.0,30.14,SW,220,8.0,8.0,100,-99.99,,,-99.99,,2013-06-24 11:00:00,
2013-06-24 07:32:00,74.0,74.0,30.14,SW,220,8.0,8.0,100,-99.99,,,-99.99,,2013-06-24 11:32:00,
2013-06-24 07:42:00,74.0,74.0,30.14,SW,220,8.0,8.0,100,-99.99,,,-99.99,,2013-06-24 11:42:00,
2013-06-24 07:52:00,74.0,74.0,30.14,SW,220,8.0,8.0,100,-99.99,,,-99.99,,2013-06-24 11:52:00,
2013-06-24 08:00:00,75.0,75.0,30.14,SW,230,9.0,10.0,100,-99.99,,,-99.99,,2013-06-24 12:00:00,
2013-06-24 08:22:00,75.0,75.0,30.14,SW,230,9.0,10.0,100,-99.99,,,-99.99,,2013-06-24 12:22:00,
2013-06-24 08:33:00,75.0,75.0,30.14,SW,230,9.0,10.0,100,-99.99,,,-99.99,,2013-06-24 12:33:00,
2013-06-24 08:43:00,75.0,75.0,30.14,SW,230,9.0,10.0,100,-99.99,,,-99.99,,2013-06-24 12:43:00,
2013-06-24 09:00:00,76.0,76.0,30.14,South,190,6.0,6.0,100,-99.99,,,-99.99,,2013-06-24 13:00:00,
2013-06-24 09:42:00,76.0,76.0,30.14,South,190,6.0,6.0,100,-99.99,,,-99.99,,2013-06-24 13:42:00,
2013-06-24 09:52:00,76.0,76.0,30.14,South,190,6.0,6.0,100,-99.99,,,-99.99,,2013-06-24 13:52:00,
2013-06-24 10:00:00,76.0,76.0,30.14,South,180,8.0,8.0,100,-99.99,,,-99.99,,2013-06-24 14:00:00,
2013-06-24 10:33:00,76.0,76.0,30.14,South,180,8.0,8.0,100,-99.99,,,-99.99,,2013-06-24 14:33:00,
2013-06-24 10:43:00,76.0,76.0,30.14,South,180,8.0,8.0,100,-99.99,,,-99.99,,2013-06-24 14:43:00,
2013-06-24 10:52:00,76.0,76.0,30.14,South,180,8.0,8.0,100,-99.99,,,-99.99,,2013-06-24 14:52:00,
2013-06-24 11:00:00,77.0,77.0,30.14,SSE,160,7.0,8.0,100,-99.99,,,-99.99,,2013-06-24 15:00:00,
2013-06-24 11:23:00,77.0,77.0,30.14,SSE,160,7.0,8.0,100,-99.99,,,-99.99,,2013-06-24 15:23:00,
2013-06-24 11:33:00,77.0,77.0,30.14,SSE,160,7.0,8.0,100,-99.99,,,-99.99,,2013-06-24 15:33:00,
2013-06-24 11:43:00,77.0,77.0,30.14,SSE,160,7.0,8.0,100,-99.99,,,-99.99,,2013-06-24 15:43:00,
2013-06-24 11:52:00,77.0,77.0,30.14,SSE,160,7.0,8.0,100,-99.99,,,-99.99,,2013-06-24 15:52:00,
2013-06-24 12:00:00,77.0,77.0,30.13,SSE,160,8.0,9.0,100,-99.99,,,-99.99,,2013-06-24 16:00:00,
2013-06-24 12:42:00,77.0,77.0,30.13,SSE,160,8.0,9.0,100,-99.99,,,-99.99,,2013-06-24 16:42:00,
2013-06-24 12:53:00,77.0,77.0,30.13,SSE,160,8.0,9.0,100,-99.99,,,-99.99,,2013-06-24 16:53:00,
2013-06-24 13:00:00,78.0,78.0,30.13,South,170,10.0,12.0,100,-99.99,,,-99.99,,2013-06-24 17:00:00,
2013-06-24 13:33:00,78.0,78.0,30.13,South,170,10.0,12.0,100,-99.99,,,-99.99,,2013-06-24 17:33:00,
2013-06-24 13:43:00,78.0,78.0,30.13,South,170,10.0,12.0,100,-99.99,,,-99.99,,2013-06-24 17:43:00,
2013-06-24 13:54:00,78.0,78.0,30.13,South,170,10.0,12.0,100,-99.99,,,-99.99,,2013-06-24 17:54:00,
2013-06-24 14:00:00,80.0,78.0,30.09,SSE,160,13.0,14.0,94,-99.99,,,-99.99,,2013-06-24 18:00:00,
2013-06-24 14:42:00,80.0,78.0,30.09,SSE,160,13.0,14.0,94,-99.99,,,-99.99,,2013-06-24 18:42:00,
2013-06-24 14:53:00,80.0,78.0,30.09,SSE,160,13.0,14.0,94,-99.99,,,-99.99,,2013-06-24 18:53:00,
2013-06-24 15:00:00,80.0,79.0,30.06,South,170,16.0,17.0,97,-99.99,,,-99.99,,2013-06-24 19:00:00,
2013-06-24 15:33:00,80.0,79.0,30.06,South,170,16.0,17.0,97,-99.99,,,-99.99,,2013-06-24 19:33:00,
2013-06-24 15:42:00,80.0,79.0,30.06,South,170,16.0,17.0,97,-99.99,,,-99.99,,2013-06-24 19:42:00,
2013-06-24 15:53:00,80.0,79.0,30.06,South,170,16.0,17.0,97,-99.99,,,-99.99,,2013-06-24 19:53:00,
2013-06-24 16:00:00,80.0,80.0,30.05,South,170,14.0,15.0,100,-99.99,,,-99.99,,2013-06-24 20:00:00,
2013-06-24 16:42:00,80.0,80.0,30.05,South,170,14.0,15.0,100,-99.99,,,-99.99,,2013-06-24 20:42:00,
2013-06-24 16:53:00,80.0,80.0,30.05,South,170,14.0,15.0,100,-99.99,,,-99.99,,2013-06-24 20:53:00,
2013-06-24 17:33:00,80.0,80.0,30.07,SSW,200,13.0,14.0,100,-99.99,,,-99.99,,2013-06-24 21:33:00,
2013-06-24 17:43:00,80.0,80.0,30.07,SSW,200,13.0,14.0,100,-99.99,,,-99.99,,2013-06-24 21:43:00,
2013-06-24 17:52:00,80.0,80.0,30.07,SSW,200,13.0,14.0,100,-99.99,,,-99.99,,2013-06-24 21:52:00,
2013-06-24 18:00:00,79.0,76.0,30.03,West,260,22.0,23.0,92,-99.99,,,-99.99,,2013-06-24 22:00:00,
2013-06-24 18:33:00,79.0,76.0,30.03,West,260,22.0,23.0,92,-99.99,,,-99.99,,2013-06-24 22:33:00,
2013-06-24 18:43:00,79.0,76.0,30.03,West,260,22.0,23.0,92,-99.99,,,-99.99,,2013-06-24 22:43:00,
2013-06-24 18:53:00,79.0,76.0,30.03,West,260,22.0,23.0,92,-99.99,,,-99.99,,2013-06-24 22:53:00,
2013-06-24 19:00:00,78.0,76.0,30.03,SW,220,15.0,16.0,94,-99.99,,,-99.99,,2013-06-24 23:00:00,
2013-06-24 19:33:00,78.0,76.0,30.03,SW,220,15.0,16.0,94,-99.99,,,-99.99,,2013-06-24 23:33:00,
2013-06-24 19:43:00,78.0,76.0,30.03,SW,220,15.0,16.0,94,-99.99,,,-99.99,,2013-06-24 23:43:00,
2013-06-24 19:52:00,78.0,76.0,30.03,SW,220,15.0,16.0,94,-99.99,,,-99.99,,2013-06-24 23:52:00,
2013-06-24 20:00:00,79.0,75.0,30.05,WNW,300,7.0,8.0,87,-99.99,,,-99.99,,2013-06-25 00:00:00,
2013-06-24 20:32:00,79.0,75.0,30.05,WNW,300,7.0,8.0,87,-99.99,,,-99.99,,2013-06-25 00:32:00,
2013-06-24 20:43:00,79.0,75.0,30.05,WNW,300,7.0,8.0,87,-99.99,,,-99.99,,2013-06-25 00:43:00,
2013-06-24 20:52:00,79.0,75.0,30.05,WNW,300,7.0,8.0,87,-99.99,,,-99.99,,2013-06-25 00:52:00,
2013-06-24 21:33:00,78.0,74.0,30.05,SW,220,10.0,12.0,87,-99.99,,,-99.99,,2013-06-25 01:33:00,
2013-06-24 21:52:00,78.0,74.0,30.05,SW,220,10.0,12.0,87,-99.99,,,-99.99,,2013-06-25 01:52:00,